Time;durP1;ratioP1;P1;durP2;ratioP2;P2;SDS_P1;SDS_P2;PMS_P1;PMS_P2;Temp;Humidity;BMP_temperature;BMP_pressure;BME280_temperature;BME280_humidity;BME280_pressure;Samples;Min_cycle;Max_cycle;Signal;HPM_P1;HPM_P2
2022/01/27 00:02:36;;;;;;;10.63;5.85;;;-1.70;99.90;;;;;;5056863;28;20481;-74
2022/01/27 00:05:18;;;;;;;12.57;6.05;;;-1.70;99.90;;;;;;5064078;28;20601;-74
2022/01/27 00:07:53;;;;;;;17.65;7.45;;;-1.80;99.90;;;;;;5074042;28;20020;-73
2022/01/27 00:10:29;;;;;;;12.75;6.65;;;-1.80;99.90;;;;;;5064785;28;20033;-74
2022/01/27 00:12:55;;;;;;;12.80;6.00;;;-1.80;99.90;;;;;;5052576;28;20033;-75
2022/01/27 00:15:29;;;;;;;17.65;6.97;;;-1.80;99.90;;;;;;5066448;28;20025;-73
2022/01/27 00:18:02;;;;;;;14.30;6.78;;;-1.80;99.90;;;;;;5072258;28;20040;-74
2022/01/27 00:20:28;;;;;;;13.02;6.85;;;-1.90;99.90;;;;;;5068774;28;20060;-74
2022/01/27 00:22:54;;;;;;;14.82;6.43;;;-1.90;99.90;;;;;;5073901;28;20640;-73
2022/01/27 00:25:20;;;;;;;13.02;6.40;;;-1.90;99.90;;;;;;5073278;28;20040;-73
2022/01/27 00:27:46;;;;;;;10.82;5.90;;;-2.00;99.90;;;;;;5069659;28;20487;-74
2022/01/27 00:30:13;;;;;;;13.70;6.93;;;-2.00;99.90;;;;;;5079874;28;20395;-73
2022/01/27 00:32:38;;;;;;;14.48;7.30;;;-2.10;99.90;;;;;;5073437;28;20020;-74
2022/01/27 00:35:05;;;;;;;15.43;7.32;;;-2.10;99.90;;;;;;5072827;28;20480;-74
2022/01/27 00:37:31;;;;;;;13.93;7.07;;;-2.10;99.90;;;;;;5068315;28;20029;-73
2022/01/27 00:39:57;;;;;;;17.17;7.50;;;-2.10;99.90;;;;;;5062840;28;20055;-74
2022/01/27 00:42:24;;;;;;;14.90;7.87;;;-2.10;99.90;;;;;;5073706;28;20032;-74
2022/01/27 00:44:50;;;;;;;15.63;7.38;;;-2.10;99.90;;;;;;5071655;28;20066;-73
2022/01/27 00:47:16;;;;;;;13.50;6.93;;;-2.10;99.90;;;;;;5072132;28;20064;-74
2022/01/27 00:49:42;;;;;;;17.77;8.47;;;-2.10;99.90;;;;;;5073188;28;20040;-73
2022/01/27 00:52:12;;;;;;;22.83;8.73;;;-2.00;99.90;;;;;;5073575;28;20273;-75
2022/01/27 00:54:37;;;;;;;16.75;8.02;;;-2.00;99.90;;;;;;5071056;28;20036;-73
2022/01/27 01:04:59;;;;;;;19.50;9.18;;;-2.20;99.90;;;;;;5068512;28;20028;-75
2022/01/27 01:07:30;;;;;;;19.92;9.65;;;-2.20;99.90;;;;;;5071668;28;20024;-75
2022/01/27 01:13:26;;;;;;;18.70;9.20;;;-2.20;99.90;;;;;;5072942;28;20507;-74
2022/01/27 01:15:31;;;;;;;12.52;7.10;;;-2.20;99.90;;;;;;5065327;28;20043;-73
2022/01/27 01:18:27;;;;;;;22.02;9.68;;;-2.20;99.90;;;;;;5072921;28;20055;-74
2022/01/27 01:36:57;;;;;;;17.80;9.02;;;-2.10;99.90;;;;;;5050460;28;20332;-75
2022/01/27 01:39:29;;;;;;;16.88;9.55;;;-2.20;99.90;;;;;;5071764;28;20400;-74
2022/01/27 01:41:57;;;;;;;20.33;9.27;;;-2.20;99.90;;;;;;5069358;28;20031;-73
2022/01/27 01:44:24;;;;;;;17.75;9.52;;;-2.10;99.90;;;;;;5072079;28;20032;-73
2022/01/27 01:46:50;;;;;;;16.15;9.25;;;-2.10;99.90;;;;;;5070892;28;20021;-74
2022/01/27 01:49:16;;;;;;;19.92;9.13;;;-2.10;99.90;;;;;;5069790;28;20484;-74
2022/01/27 01:51:43;;;;;;;17.05;8.85;;;-2.00;99.90;;;;;;5070858;28;20038;-74
2022/01/27 01:54:10;;;;;;;16.20;8.57;;;-2.00;99.90;;;;;;5070438;28;20047;-74
2022/01/27 01:56:37;;;;;;;17.30;7.72;;;-2.00;99.90;;;;;;5072094;28;20456;-74
2022/01/27 01:59:05;;;;;;;21.45;8.40;;;-2.00;99.90;;;;;;5070080;28;20130;-74
2022/01/27 02:01:32;;;;;;;18.38;8.75;;;-2.00;99.90;;;;;;5071907;28;20464;-74
2022/01/27 02:04:02;;;;;;;13.77;7.30;;;-2.00;99.90;;;;;;5071807;28;20448;-74
2022/01/27 02:06:34;;;;;;;15.95;7.38;;;-2.00;99.90;;;;;;5071823;28;20030;-74
2022/01/27 02:20:00;;;;;;;15.73;7.95;;;-2.00;99.90;;;;;;5068394;28;20776;-73
2022/01/27 02:22:26;;;;;;;16.55;7.60;;;-2.00;99.90;;;;;;5071780;28;20023;-73
2022/01/27 02:24:53;;;;;;;16.65;7.72;;;-2.00;99.90;;;;;;5070577;28;20032;-73
2022/01/27 02:27:20;;;;;;;18.25;8.15;;;-2.00;99.90;;;;;;5071233;28;20033;-73
2022/01/27 02:29:46;;;;;;;15.35;7.28;;;-2.00;99.90;;;;;;5071324;28;20064;-72
2022/01/27 02:32:14;;;;;;;15.43;7.07;;;-2.00;99.90;;;;;;5071667;28;20399;-73
2022/01/27 02:34:41;;;;;;;16.52;7.93;;;-1.70;99.90;;;;;;5070696;28;20036;-74
2022/01/27 02:37:08;;;;;;;15.43;7.55;;;-2.10;99.90;;;;;;5086858;28;20032;-74
2022/01/27 02:39:34;;;;;;;15.43;7.50;;;-2.10;99.90;;;;;;5086511;28;20495;-73
2022/01/27 02:42:25;;;;;;;16.98;7.85;;;-2.10;99.90;;;;;;5071392;28;20028;-73
2022/01/27 02:45:11;;;;;;;16.52;8.25;;;-2.10;99.90;;;;;;5063003;28;20033;-74
2022/01/27 02:47:36;;;;;;;17.95;8.05;;;-2.10;99.90;;;;;;5070599;28;20184;-74
2022/01/27 02:50:03;;;;;;;18.67;8.05;;;-2.20;99.90;;;;;;5069818;28;20132;-73
2022/01/27 02:52:30;;;;;;;15.75;7.88;;;-2.20;99.90;;;;;;5065918;28;20028;-74
2022/01/27 02:54:56;;;;;;;14.88;7.75;;;-2.20;99.90;;;;;;5075331;28;20484;-74
2022/01/27 02:57:25;;;;;;;16.47;7.60;;;-2.20;99.90;;;;;;5069600;28;20036;-74
2022/01/27 02:59:51;;;;;;;13.40;6.90;;;-2.20;99.90;;;;;;5071168;28;20712;-74
2022/01/27 03:02:18;;;;;;;14.48;6.57;;;-2.30;99.90;;;;;;5059367;28;20041;-74
2022/01/27 03:04:45;;;;;;;15.07;7.45;;;-2.20;99.90;;;;;;5058409;28;20366;-74
2022/01/27 03:07:12;;;;;;;14.70;7.65;;;-2.20;99.90;;;;;;5069213;28;20025;-75
2022/01/27 03:09:38;;;;;;;;;;;-2.20;99.90;;;;;;5071516;28;20028;-74
2022/01/27 03:12:10;;;;;;;13.68;6.78;;;-2.20;99.90;;;;;;5053134;28;20371;-73
2022/01/27 03:14:36;;;;;;;14.77;7.07;;;-2.20;99.90;;;;;;5057348;28;20052;-74
2022/01/27 03:17:04;;;;;;;17.92;7.68;;;-2.10;99.90;;;;;;5071021;28;20024;-73
2022/01/27 03:19:31;;;;;;;11.52;6.03;;;-2.10;99.90;;;;;;5065672;28;20047;-74
2022/01/27 03:21:58;;;;;;;13.15;6.07;;;-2.10;99.90;;;;;;5051115;28;20475;-74
2022/01/27 03:24:28;;;;;;;14.93;6.32;;;-2.10;99.90;;;;;;5070753;28;20053;-73
2022/01/27 03:26:57;;;;;;;16.67;7.40;;;-2.20;99.90;;;;;;5070970;28;20028;-73
2022/01/27 03:29:24;;;;;;;12.35;6.32;;;-2.20;99.90;;;;;;5068658;28;20123;-74
2022/01/27 03:31:50;;;;;;;15.45;5.90;;;-2.10;99.90;;;;;;5071116;28;20012;-74
2022/01/27 03:34:16;;;;;;;12.37;6.47;;;-2.20;99.90;;;;;;5069116;28;20438;-74
2022/01/27 03:36:42;;;;;;;13.13;5.70;;;-2.20;99.90;;;;;;5070596;28;20316;-74
2022/01/27 03:39:09;;;;;;;11.27;5.25;;;-2.20;99.90;;;;;;5068831;28;20037;-73
2022/01/27 03:41:37;;;;;;;16.50;8.20;;;-2.30;99.90;;;;;;5071094;28;20025;-73
2022/01/27 03:44:05;;;;;;;11.85;6.43;;;-2.20;99.90;;;;;;5069340;28;20148;-74
2022/01/27 03:46:31;;;;;;;14.18;6.25;;;-2.30;99.90;;;;;;5065667;28;20025;-74
2022/01/27 03:48:57;;;;;;;12.93;6.07;;;-2.30;99.90;;;;;;5051002;28;20057;-73
2022/01/27 03:51:23;;;;;;;11.77;5.63;;;-2.20;99.90;;;;;;5070847;28;20096;-74
2022/01/27 03:53:49;;;;;;;12.95;6.50;;;-2.30;99.90;;;;;;5069333;28;20024;-75
2022/01/27 03:56:14;;;;;;;12.52;5.35;;;-2.30;99.90;;;;;;5059868;28;20496;-74
2022/01/27 03:58:40;;;;;;;10.75;5.15;;;-2.20;99.90;;;;;;5065741;28;20025;-74
2022/01/27 04:01:06;;;;;;;11.07;5.67;;;-2.30;99.90;;;;;;5069336;28;20040;-74
2022/01/27 04:03:36;;;;;;;12.48;5.05;;;-2.30;99.90;;;;;;5069144;28;20371;-74
2022/01/27 04:06:10;;;;;;;13.60;4.85;;;-2.40;99.90;;;;;;5057121;28;20041;-74
2022/01/27 04:08:37;;;;;;;11.18;5.20;;;-2.40;99.90;;;;;;5053718;28;20074;-75
2022/01/27 04:11:05;;;;;;;10.80;5.30;;;-2.30;99.90;;;;;;5071441;28;20037;-73
2022/01/27 04:13:31;;;;;;;10.73;5.22;;;-2.30;99.90;;;;;;5068984;28;20025;-74
2022/01/27 04:15:57;;;;;;;12.88;5.85;;;-2.40;99.90;;;;;;5071659;28;20123;-74
2022/01/27 04:18:23;;;;;;;12.90;4.77;;;-2.40;99.90;;;;;;5072540;28;20115;-73
2022/01/27 04:20:48;;;;;;;13.80;5.70;;;-2.50;99.90;;;;;;5074251;28;20090;-73
2022/01/27 04:23:14;;;;;;;13.07;6.10;;;-2.40;99.90;;;;;;5068735;28;20036;-74
2022/01/27 04:25:40;;;;;;;10.43;4.17;;;-2.40;99.90;;;;;;5069133;28;20119;-75
2022/01/27 04:28:10;;;;;;;7.20;4.27;;;-2.40;99.90;;;;;;5073563;28;20053;-73
2022/01/27 04:30:36;;;;;;;10.23;4.80;;;-2.40;99.90;;;;;;5072444;28;20472;-74
2022/01/27 04:33:04;;;;;;;12.95;4.78;;;-2.40;99.90;;;;;;5057183;28;20037;-74
2022/01/27 04:35:34;;;;;;;8.25;4.07;;;-2.50;99.90;;;;;;5082256;28;20075;-74
2022/01/27 04:40:34;;;;;;;10.80;4.25;;;-2.60;99.90;;;;;;5073784;28;20025;-74
2022/01/27 04:48:18;;;;;;;8.93;3.77;;;-2.60;99.90;;;;;;5073156;28;20017;-74
2022/01/27 04:50:44;;;;;;;6.97;3.80;;;-2.60;99.90;;;;;;5068045;28;20032;-74
2022/01/27 04:53:20;;;;;;;5.70;2.97;;;-2.60;99.90;;;;;;5053405;28;20503;-75
2022/01/27 04:55:46;;;;;;;8.05;3.15;;;-2.60;99.90;;;;;;5069411;28;20488;-75
2022/01/27 04:58:19;;;;;;;6.85;3.35;;;-2.60;99.90;;;;;;5071884;28;20077;-73
2022/01/27 05:00:45;;;;;;;8.88;3.80;;;-2.60;99.90;;;;;;5070814;28;20040;-74
2022/01/27 05:03:34;;;;;;;;;;;-2.60;99.90;;;;;;5073062;28;20021;-75
2022/01/27 05:06:00;;;;;;;7.00;3.22;;;-2.60;99.90;;;;;;5071704;28;19912;-73
2022/01/27 05:08:26;;;;;;;5.80;3.30;;;-2.60;99.90;;;;;;5065240;28;20040;-73
2022/01/27 05:10:59;;;;;;;12.43;4.00;;;-2.60;99.90;;;;;;5069873;28;20036;-74
2022/01/27 05:13:27;;;;;;;7.85;4.10;;;-2.60;99.90;;;;;;5073101;28;20257;-73
2022/01/27 05:15:54;;;;;;;7.50;4.28;;;-2.60;99.90;;;;;;5071249;28;20040;-74
2022/01/27 05:18:20;;;;;;;7.63;3.72;;;-2.60;99.90;;;;;;5057951;28;20456;-74
2022/01/27 05:20:47;;;;;;;7.43;3.65;;;-2.70;99.90;;;;;;5081835;28;20036;-75
2022/01/27 05:23:13;;;;;;;8.77;3.92;;;-2.70;99.90;;;;;;5053898;28;20361;-74
2022/01/27 05:25:39;;;;;;;9.73;4.70;;;-2.70;99.90;;;;;;5066156;28;20502;-74
2022/01/27 05:28:07;;;;;;;8.50;3.83;;;-2.70;99.90;;;;;;5072659;28;20569;-74
2022/01/27 05:30:33;;;;;;;13.20;4.45;;;-2.80;99.90;;;;;;5070739;28;20064;-74
2022/01/27 05:32:59;;;;;;;11.07;4.10;;;-2.70;99.90;;;;;;5071981;28;20036;-73
2022/01/27 05:35:25;;;;;;;8.48;4.43;;;-2.80;99.90;;;;;;5070315;28;20380;-74
2022/01/27 05:37:51;;;;;;;8.13;3.97;;;-2.80;99.90;;;;;;5072562;28;20028;-73
2022/01/27 05:40:17;;;;;;;9.73;4.65;;;-2.80;99.90;;;;;;5066831;28;20196;-74
2022/01/27 05:42:43;;;;;;;10.77;4.80;;;-2.90;99.90;;;;;;5065821;28;20033;-73
2022/01/27 05:45:09;;;;;;;10.48;5.25;;;-2.90;99.90;;;;;;5072271;28;20479;-74
2022/01/27 05:47:35;;;;;;;9.02;4.60;;;-2.90;99.90;;;;;;5072163;28;20028;-73
2022/01/27 05:50:01;;;;;;;12.95;6.22;;;-3.00;99.90;;;;;;5068258;28;20059;-72
2022/01/27 05:52:27;;;;;;;15.23;5.47;;;-3.10;99.90;;;;;;5071998;28;20028;-73
2022/01/27 05:54:52;;;;;;;9.37;4.30;;;-3.00;99.90;;;;;;5071938;28;20482;-73
2022/01/27 05:57:18;;;;;;;12.53;5.50;;;-3.00;99.90;;;;;;5068987;28;20314;-73
2022/01/27 05:59:44;;;;;;;9.65;5.22;;;-2.90;99.90;;;;;;5071644;28;20051;-73
2022/01/27 06:02:10;;;;;;;10.68;5.38;;;-2.90;99.90;;;;;;5071837;28;20029;-74
2022/01/27 06:04:35;;;;;;;10.48;5.18;;;-2.90;99.90;;;;;;5072038;28;20430;-72
2022/01/27 06:07:01;;;;;;;7.60;4.00;;;-2.90;99.90;;;;;;5070487;28;20132;-74
2022/01/27 06:09:27;;;;;;;10.93;5.18;;;-2.90;99.90;;;;;;5071116;28;20460;-73
2022/01/27 06:11:52;;;;;;;12.30;5.27;;;-2.80;99.90;;;;;;5070386;28;20055;-73
2022/01/27 06:14:18;;;;;;;11.43;5.80;;;-2.80;99.90;;;;;;5070163;28;20028;-73
2022/01/27 06:16:45;;;;;;;11.85;5.03;;;-2.80;99.90;;;;;;5071888;28;20611;-76
2022/01/27 06:19:13;;;;;;;11.18;4.93;;;-2.70;99.90;;;;;;5071202;28;20040;-73
2022/01/27 06:21:40;;;;;;;14.10;5.65;;;-2.60;99.90;;;;;;5071896;28;20489;-73
2022/01/27 06:24:06;;;;;;;9.98;5.25;;;-2.60;99.90;;;;;;5063363;28;20048;-74
2022/01/27 06:26:32;;;;;;;11.80;5.60;;;-2.60;99.90;;;;;;5069776;28;20033;-74
2022/01/27 06:28:58;;;;;;;13.25;5.15;;;-2.60;99.90;;;;;;5071168;28;20538;-75
2022/01/27 06:31:24;;;;;;;10.48;4.80;;;-2.60;99.90;;;;;;5066457;28;20123;-74
2022/01/27 06:33:52;;;;;;;11.45;5.35;;;-2.50;99.90;;;;;;5051588;28;20036;-74
2022/01/27 06:36:18;;;;;;;9.55;5.35;;;-2.40;99.90;;;;;;5066908;28;20377;-75
2022/01/27 06:38:44;;;;;;;10.35;5.43;;;-2.30;99.90;;;;;;5051289;28;20024;-74
2022/01/27 06:41:10;;;;;;;13.35;6.90;;;-2.30;99.90;;;;;;5068179;28;20049;-76
2022/01/27 06:43:36;;;;;;;13.73;6.28;;;-2.00;99.90;;;;;;5051465;28;20515;-75
2022/01/27 06:46:02;;;;;;;11.85;6.00;;;-1.80;99.90;;;;;;5085089;28;20158;-75
2022/01/27 06:48:28;;;;;;;17.08;6.20;;;-1.80;99.90;;;;;;5083111;28;20036;-74
2022/01/27 06:50:55;;;;;;;8.77;4.88;;;-1.70;99.90;;;;;;5068562;28;20036;-74
2022/01/27 06:53:22;;;;;;;17.13;6.22;;;-1.80;99.90;;;;;;5070979;28;20107;-76
2022/01/27 06:55:48;;;;;;;12.18;5.93;;;-1.80;99.90;;;;;;5069787;28;20525;-76
2022/01/27 06:58:14;;;;;;;10.77;6.32;;;-1.80;99.90;;;;;;5068625;28;20036;-74
2022/01/27 07:00:39;;;;;;;14.97;5.30;;;-1.80;99.90;;;;;;5071012;28;20082;-74
2022/01/27 07:03:05;;;;;;;15.23;6.47;;;-1.80;99.90;;;;;;5069812;28;20025;-74
2022/01/27 07:05:32;;;;;;;17.20;6.57;;;-1.80;99.90;;;;;;5069708;28;20459;-73
2022/01/27 07:07:59;;;;;;;16.90;6.60;;;-1.90;99.90;;;;;;5065927;28;20360;-74
2022/01/27 07:10:24;;;;;;;16.90;7.03;;;-2.00;99.90;;;;;;5064171;28;20041;-75
2022/01/27 07:12:50;;;;;;;14.10;7.17;;;-2.00;99.90;;;;;;5071171;28;20040;-75
2022/01/27 07:15:18;;;;;;;14.55;6.40;;;-1.80;99.90;;;;;;5070258;28;20322;-74
2022/01/27 07:17:43;;;;;;;11.02;6.43;;;-1.70;99.90;;;;;;5066242;28;20043;-75
2022/01/27 07:20:10;;;;;;;13.75;7.57;;;-1.50;99.90;;;;;;5061688;28;20033;-74
2022/01/27 07:22:36;;;;;;;13.85;7.22;;;-1.10;99.90;;;;;;5071091;28;20082;-74
2022/01/27 07:25:05;;;;;;;13.07;6.32;;;-0.60;99.90;;;;;;5069702;28;20041;-74
2022/01/27 07:27:32;;;;;;;14.85;7.28;;;-0.50;99.90;;;;;;5070878;28;20047;-74
2022/01/27 07:29:57;;;;;;;;;;;-0.60;99.90;;;;;;5070195;28;20136;-63
2022/01/27 07:32:23;;;;;;;13.45;7.22;;;-0.80;99.90;;;;;;5068559;28;19999;-66
2022/01/27 07:34:49;;;;;;;15.73;6.70;;;-0.90;99.90;;;;;;5065849;28;20124;-66
2022/01/27 07:37:15;;;;;;;14.85;6.32;;;-0.90;99.90;;;;;;5060643;28;20108;-69
2022/01/27 07:39:40;;;;;;;13.32;6.78;;;-1.00;99.90;;;;;;5076680;28;21447;-68
2022/01/27 07:42:06;;;;;;;13.50;6.97;;;-1.00;99.90;;;;;;5058323;28;20024;-69
2022/01/27 07:44:33;;;;;;;13.65;7.20;;;-1.10;99.90;;;;;;5085852;28;20143;-68
2022/01/27 07:46:59;;;;;;;;;;;-1.00;99.90;;;;;;5068913;28;20040;-67
2022/01/27 07:49:24;;;;;;;12.57;6.78;;;-1.00;99.90;;;;;;5066717;28;19921;-68
2022/01/27 07:51:50;;;;;;;12.43;7.30;;;-1.00;99.90;;;;;;5069582;28;20486;-67
2022/01/27 07:54:16;;;;;;;19.13;7.93;;;-0.90;99.90;;;;;;5066637;28;20071;-68
2022/01/27 07:56:42;;;;;;;16.27;7.38;;;-0.80;99.90;;;;;;5078899;28;20029;-70
2022/01/27 07:59:08;;;;;;;14.47;8.23;;;-0.70;99.90;;;;;;5062267;28;20090;-67
2022/01/27 08:01:33;;;;;;;14.07;7.57;;;-0.60;99.90;;;;;;5070876;28;20024;-67
2022/01/27 08:03:59;;;;;;;14.13;7.80;;;-0.60;99.90;;;;;;5069979;28;20024;-66
2022/01/27 08:06:25;;;;;;;18.47;8.10;;;-0.50;99.90;;;;;;5069970;28;20328;-64
2022/01/27 08:08:51;;;;;;;15.30;7.23;;;-0.40;99.90;;;;;;5064375;28;20078;-65
2022/01/27 08:11:18;;;;;;;17.73;8.47;;;-0.40;99.90;;;;;;5068042;28;20032;-65
2022/01/27 08:13:44;;;;;;;14.77;7.75;;;-0.40;99.90;;;;;;5062662;28;20148;-65
2022/01/27 08:16:10;;;;;;;19.48;9.60;;;-0.40;99.90;;;;;;5060019;28;20041;-63
2022/01/27 08:18:36;;;;;;;16.30;8.50;;;-0.40;99.90;;;;;;5059693;28;20024;-65
2022/01/27 08:21:02;;;;;;;22.47;9.90;;;-0.40;99.90;;;;;;5062078;28;20692;-70
2022/01/27 08:23:28;;;;;;;18.27;8.32;;;-0.50;99.90;;;;;;5060872;28;20024;-68
2022/01/27 08:26:03;;;;;;;23.42;9.73;;;-0.50;99.90;;;;;;5065436;28;20051;-67
2022/01/27 08:28:39;;;;;;;16.67;9.75;;;-0.50;99.90;;;;;;5062628;28;20112;-67
2022/01/27 08:31:05;;;;;;;22.15;9.30;;;-0.50;99.90;;;;;;5064999;28;20073;-67
2022/01/27 08:33:32;;;;;;;22.48;9.20;;;-0.50;99.90;;;;;;5060746;28;20534;-66
2022/01/27 08:35:58;;;;;;;16.60;9.32;;;-0.40;99.90;;;;;;5061309;28;20033;-67
2022/01/27 08:38:28;;;;;;;16.33;8.98;;;-0.40;99.90;;;;;;5065066;28;20466;-68
2022/01/27 08:40:54;;;;;;;17.25;9.63;;;-0.30;99.90;;;;;;5065519;28;20480;-66
2022/01/27 08:43:20;;;;;;;19.48;9.75;;;-0.30;99.90;;;;;;5061632;28;20033;-68
2022/01/27 08:45:46;;;;;;;18.63;9.43;;;-0.30;99.90;;;;;;5066192;28;20090;-67
2022/01/27 08:48:17;;;;;;;21.08;10.10;;;-0.30;99.90;;;;;;5069279;28;20039;-67
2022/01/27 08:50:50;;;;;;;17.95;9.25;;;-0.20;99.90;;;;;;5065613;28;20044;-65
2022/01/27 08:53:16;;;;;;;133.77;61.17;;;-0.20;99.90;;;;;;5064349;28;20028;-67
2022/01/27 08:55:44;;;;;;;22.33;12.47;;;-0.20;99.90;;;;;;5061660;28;20048;-65
2022/01/27 08:58:11;;;;;;;18.13;9.95;;;-0.20;99.90;;;;;;5061222;28;20531;-64
2022/01/27 09:00:36;;;;;;;17.73;8.18;;;-0.20;99.90;;;;;;5056725;28;20118;-66
2022/01/27 09:03:02;;;;;;;18.20;9.23;;;-0.20;99.90;;;;;;5067629;28;20033;-65
2022/01/27 09:05:28;;;;;;;18.50;9.90;;;0.70;99.90;;;;;;5066069;28;20041;-64
2022/01/27 09:07:56;;;;;;;15.67;8.97;;;0.00;99.90;;;;;;5067961;28;20031;-66
2022/01/27 09:10:23;;;;;;;15.82;8.48;;;0.00;99.90;;;;;;5066438;28;20039;-66
2022/01/27 09:12:49;;;;;;;18.42;7.50;;;0.00;99.90;;;;;;5064876;28;20032;-66
2022/01/27 09:15:15;;;;;;;19.55;9.52;;;0.00;99.90;;;;;;5065865;28;20051;-67
2022/01/27 09:17:41;;;;;;;16.45;9.32;;;-0.10;99.90;;;;;;5063007;28;20062;-67
2022/01/27 09:20:11;;;;;;;17.05;9.15;;;-0.30;99.90;;;;;;5062434;28;20369;-67
2022/01/27 09:22:38;;;;;;;16.42;8.88;;;-0.30;99.90;;;;;;5064767;28;20860;-68
2022/01/27 09:25:17;;;;;;;21.88;9.43;;;-0.30;99.90;;;;;;5066179;28;20094;-65
2022/01/27 09:27:45;;;;;;;14.88;8.52;;;-0.20;99.90;;;;;;5062802;28;20063;-65
2022/01/27 09:30:14;;;;;;;21.63;9.70;;;0.00;99.90;;;;;;5063596;28;20089;-69
2022/01/27 09:32:40;;;;;;;19.80;8.63;;;0.20;99.90;;;;;;5055424;28;20040;-66
2022/01/27 09:35:06;;;;;;;17.48;8.45;;;0.40;99.90;;;;;;5058259;28;20124;-66
2022/01/27 09:37:32;;;;;;;20.20;8.88;;;0.60;99.90;;;;;;5062427;28;20476;-69
2022/01/27 09:39:58;;;;;;;18.27;8.30;;;0.60;99.90;;;;;;5058614;28;20032;-67
2022/01/27 09:42:27;;;;;;;16.25;8.30;;;0.70;99.90;;;;;;5062564;28;20399;-65
2022/01/27 09:44:53;;;;;;;17.20;8.65;;;1.00;99.90;;;;;;5065606;28;20040;-66
2022/01/27 09:47:20;;;;;;;19.10;10.02;;;1.20;99.90;;;;;;5065606;28;20720;-69
2022/01/27 09:49:53;;;;;;;18.73;9.90;;;1.10;99.90;;;;;;5062228;28;20087;-64
2022/01/27 09:52:19;;;;;;;16.33;8.90;;;1.10;99.90;;;;;;5060314;28;20024;-65
2022/01/27 09:54:46;;;;;;;14.43;8.32;;;1.10;99.90;;;;;;5053141;28;20434;-68
2022/01/27 09:57:17;;;;;;;17.17;9.32;;;1.00;99.90;;;;;;5055300;28;20085;-66
2022/01/27 09:59:46;;;;;;;15.05;8.48;;;0.90;99.90;;;;;;5063457;28;20078;-66
2022/01/27 10:02:17;;;;;;;19.63;10.40;;;0.70;99.90;;;;;;5062449;28;20028;-66
2022/01/27 10:04:43;;;;;;;18.38;8.85;;;0.60;99.90;;;;;;5052937;28;20028;-69
2022/01/27 10:07:10;;;;;;;18.30;10.05;;;0.50;99.90;;;;;;5061998;28;20028;-65
2022/01/27 10:09:36;;;;;;;24.83;10.38;;;0.40;99.90;;;;;;5060289;28;20064;-68
2022/01/27 10:12:05;;;;;;;19.23;9.95;;;0.30;99.90;;;;;;5061198;28;20028;-66
2022/01/27 10:14:34;;;;;;;20.27;10.02;;;0.80;99.90;;;;;;5059849;28;20041;-69
2022/01/27 10:17:04;;;;;;;18.92;10.70;;;0.30;99.90;;;;;;5060579;28;20091;-66
2022/01/27 10:19:30;;;;;;;20.17;10.68;;;0.20;99.90;;;;;;5064933;28;20090;-66
2022/01/27 10:22:10;;;;;;;16.60;8.68;;;0.20;99.90;;;;;;5058406;28;20056;-65
2022/01/27 10:24:36;;;;;;;20.25;9.93;;;0.20;99.90;;;;;;5081704;28;20051;-68
2022/01/27 10:32:43;;;;;;;22.58;11.75;;;0.20;99.90;;;;;;5058145;28;20135;-66
2022/01/27 10:35:11;;;;;;;23.85;9.70;;;0.20;99.90;;;;;;5063326;28;20111;-66
2022/01/27 10:38:01;;;;;;;18.70;9.88;;;0.20;99.90;;;;;;5060817;28;20060;-66
2022/01/27 10:40:33;;;;;;;23.48;11.73;;;0.20;99.90;;;;;;5058286;28;20081;-68
2022/01/27 10:43:12;;;;;;;18.98;10.93;;;0.20;99.90;;;;;;5065014;28;20032;-65
2022/01/27 10:46:05;;;;;;;18.58;10.20;;;0.10;99.90;;;;;;5057636;28;20037;-67
2022/01/27 10:48:33;;;;;;;22.92;10.80;;;0.10;99.90;;;;;;5069934;28;20052;-67
2022/01/27 10:51:08;;;;;;;19.65;10.40;;;0.10;99.90;;;;;;5058981;28;20032;-67
2022/01/27 10:54:02;;;;;;;18.25;10.10;;;0.10;99.90;;;;;;5060639;28;20025;-66
2022/01/27 10:56:30;;;;;;;18.80;9.80;;;0.10;99.90;;;;;;5060252;28;20064;-65
2022/01/27 10:58:57;;;;;;;21.45;10.98;;;0.10;99.90;;;;;;5056080;28;20421;-66
2022/01/27 11:01:31;;;;;;;18.27;11.18;;;0.10;99.90;;;;;;5058239;28;20028;-66
2022/01/27 11:04:03;;;;;;;20.23;10.60;;;0.10;99.90;;;;;;5063856;28;20063;-66
2022/01/27 11:06:31;;;;;;;23.50;10.68;;;0.10;99.90;;;;;;5064195;28;20038;-66
2022/01/27 11:09:00;;;;;;;19.45;11.02;;;0.10;99.90;;;;;;5059703;28;20068;-66
2022/01/27 11:11:27;;;;;;;23.45;11.77;;;0.10;99.90;;;;;;5062470;28;20119;-66
2022/01/27 11:13:55;;;;;;;22.27;11.35;;;0.10;99.90;;;;;;5061601;28;20024;-66
2022/01/27 11:16:28;;;;;;;22.70;11.90;;;0.10;99.90;;;;;;5067422;28;20499;-66
2022/01/27 11:19:01;;;;;;;22.90;12.93;;;0.10;99.90;;;;;;5061287;28;20496;-69
2022/01/27 11:21:34;;;;;;;20.27;11.10;;;0.20;99.90;;;;;;5064267;28;20029;-70
2022/01/27 11:26:28;;;;;;;23.88;11.85;;;0.20;99.90;;;;;;5069412;28;20372;-66
2022/01/27 11:28:56;;;;;;;23.50;12.68;;;0.20;99.90;;;;;;5063417;28;20043;-66
2022/01/27 11:31:59;;;;;;;22.45;13.27;;;0.20;99.90;;;;;;5069123;28;20139;-65
2022/01/27 11:34:44;;;;;;;27.95;12.93;;;0.30;99.90;;;;;;5076750;28;20083;-65
2022/01/27 11:37:10;;;;;;;29.33;12.68;;;0.30;99.90;;;;;;5067560;28;20102;-65
2022/01/27 11:39:54;;;;;;;22.90;12.53;;;0.30;99.90;;;;;;5063165;28;20028;-66
2022/01/27 11:42:42;;;;;;;26.48;12.95;;;0.20;99.90;;;;;;5064637;28;20032;-66
2022/01/27 11:45:23;;;;;;;25.60;14.10;;;0.20;99.90;;;;;;5064123;28;20044;-65
2022/01/27 11:48:06;;;;;;;23.27;13.15;;;0.30;99.90;;;;;;5069431;28;20028;-65
2022/01/27 11:50:47;;;;;;;26.08;13.27;;;0.30;99.90;;;;;;5066027;28;20044;-66
2022/01/27 11:53:27;;;;;;;25.35;13.20;;;0.30;99.90;;;;;;5069654;28;20040;-66
2022/01/27 11:55:52;;;;;;;29.13;14.93;;;0.30;99.90;;;;;;5064538;28;20328;-64
2022/01/27 11:58:25;;;;;;;32.50;14.45;;;0.30;99.90;;;;;;5070281;28;20024;-67
2022/01/27 12:01:03;;;;;;;31.60;13.75;;;0.20;99.90;;;;;;5067009;28;20036;-66
2022/01/27 12:03:28;;;;;;;27.63;13.93;;;0.20;99.90;;;;;;5067839;28;20029;-65
2022/01/27 12:06:21;;;;;;;26.45;14.20;;;0.30;99.90;;;;;;5060724;28;20059;-66
2022/01/27 12:08:48;;;;;;;28.40;15.85;;;0.30;99.90;;;;;;5066633;28;20445;-65
2022/01/27 12:11:32;;;;;;;;;;;0.30;99.90;;;;;;5063398;28;20432;-65
2022/01/27 12:14:01;;;;;;;26.33;13.77;;;0.30;99.90;;;;;;5064449;28;19916;-66
2022/01/27 12:19:09;;;;;;;28.77;14.30;;;0.40;99.90;;;;;;5065393;28;20530;-66
2022/01/27 12:21:37;;;;;;;27.20;15.15;;;0.40;99.90;;;;;;5061162;28;20021;-66
2022/01/27 12:24:13;;;;;;;31.48;16.13;;;0.40;99.90;;;;;;5062135;28;20099;-66
2022/01/27 12:27:02;;;;;;;29.77;16.00;;;0.40;99.90;;;;;;5061190;28;20033;-68
2022/01/27 12:29:40;;;;;;;30.08;16.02;;;0.50;99.90;;;;;;5080232;28;20131;-65
2022/01/27 12:32:20;;;;;;;28.23;14.70;;;0.50;99.90;;;;;;5062744;28;20032;-65
2022/01/27 12:34:52;;;;;;;30.52;16.20;;;0.60;99.90;;;;;;5068313;28;20020;-65
2022/01/27 12:37:21;;;;;;;31.42;16.15;;;0.60;99.90;;;;;;5064991;28;20039;-67
2022/01/27 12:39:53;;;;;;;34.17;17.60;;;0.60;99.90;;;;;;5065523;28;20045;-64
2022/01/27 12:42:20;;;;;;;32.88;17.27;;;0.60;99.90;;;;;;5070313;28;20070;-64
2022/01/27 12:44:53;;;;;;;39.10;17.48;;;0.60;99.90;;;;;;5070193;28;20028;-64
2022/01/27 12:47:19;;;;;;;32.28;17.05;;;0.70;99.90;;;;;;5058332;28;20115;-63
2022/01/27 12:50:04;;;;;;;32.93;18.90;;;0.60;99.90;;;;;;5066994;28;20131;-67
2022/01/27 12:52:35;;;;;;;36.47;16.92;;;0.70;99.90;;;;;;5062395;28;20067;-66
2022/01/27 12:55:01;;;;;;;34.53;17.13;;;0.70;99.90;;;;;;5063363;28;20487;-68
2022/01/27 12:57:30;;;;;;;34.45;17.60;;;0.70;99.90;;;;;;5067871;28;20071;-67
2022/01/27 12:59:57;;;;;;;37.72;18.35;;;0.70;99.90;;;;;;5062820;28;20101;-66
2022/01/27 13:02:23;;;;;;;;;;;0.60;99.90;;;;;;5064389;28;20048;-67
2022/01/27 13:04:53;;;;;;;32.35;17.77;;;0.70;99.90;;;;;;5064339;28;19912;-66
2022/01/27 13:07:20;;;;;;;37.33;17.95;;;0.60;99.90;;;;;;5060976;28;20017;-66
2022/01/27 13:10:05;;;;;;;33.22;19.30;;;0.60;99.90;;;;;;5061169;28;20039;-65
2022/01/27 13:12:38;;;;;;;35.92;18.83;;;0.70;99.90;;;;;;5064314;28;20031;-66
2022/01/27 13:15:09;;;;;;;35.17;17.98;;;0.70;99.90;;;;;;5079650;28;20044;-69
2022/01/27 13:23:09;;;;;;;39.05;19.15;;;0.80;99.90;;;;;;5066594;28;20032;-66
2022/01/27 13:25:44;;;;;;;38.05;19.90;;;0.80;99.90;;;;;;5061399;28;20083;-69
2022/01/27 13:28:14;;;;;;;38.70;20.42;;;0.80;99.90;;;;;;5059904;28;20032;-66
2022/01/27 13:30:41;;;;;;;40.67;21.15;;;0.80;99.90;;;;;;5066318;28;20040;-69
2022/01/27 13:33:11;;;;;;;43.05;22.15;;;0.80;99.90;;;;;;5067086;28;20115;-65
2022/01/27 13:35:37;;;;;;;39.00;20.63;;;0.90;99.90;;;;;;5062016;28;20045;-66
2022/01/27 13:38:26;;;;;;;40.47;21.00;;;0.80;99.90;;;;;;5062588;28;20024;-69
2022/01/27 13:41:18;;;;;;;40.53;22.48;;;0.80;99.90;;;;;;5062830;28;20031;-68
2022/01/27 13:43:48;;;;;;;42.25;22.90;;;0.90;99.90;;;;;;5061766;28;20063;-65
2022/01/27 13:46:45;;;;;;;43.65;22.38;;;0.90;99.90;;;;;;5062726;28;20042;-68
2022/01/27 13:49:23;;;;;;;41.05;21.75;;;1.00;99.90;;;;;;5062505;28;20776;-65
2022/01/27 13:51:50;;;;;;;31.70;18.55;;;1.00;99.90;;;;;;5063146;28;20035;-65
2022/01/27 13:54:18;;;;;;;40.60;19.98;;;1.00;99.90;;;;;;5064587;28;20044;-65